Time;durP1;ratioP1;P1;durP2;ratioP2;P2;SDS_P1;SDS_P2;PMS_P1;PMS_P2;Temp;Humidity;BMP_temperature;BMP_pressure;BME280_temperature;BME280_humidity;BME280_pressure;Samples;Min_cycle;Max_cycle;Signal;HPM_P1;HPM_P2
2023/06/07 00:02:06;;;;;;;7.10;3.75;;;;;;;13.20;74.58;101663.81;4951628;29;20047;-45
2023/06/07 00:04:35;;;;;;;7.05;4.78;;;;;;;13.17;74.53;101664.50;4950481;28;20457;-47
2023/06/07 00:07:02;;;;;;;7.95;4.22;;;;;;;13.18;74.76;101655.00;4951308;29;20046;-45
2023/06/07 00:09:30;;;;;;;5.03;3.95;;;;;;;13.15;74.72;101644.56;4950731;28;20166;-45
2023/06/07 00:11:58;;;;;;;6.13;4.68;;;;;;;13.13;74.73;101639.31;4949813;28;20047;-47
2023/06/07 00:14:26;;;;;;;11.65;5.50;;;;;;;13.10;74.92;101648.38;4948805;28;20051;-45
2023/06/07 00:16:53;;;;;;;9.38;5.53;;;;;;;13.10;75.00;101639.22;4946057;28;20458;-48
2023/06/07 00:19:24;;;;;;;7.07;5.47;;;;;;;13.09;75.02;101651.47;4939891;28;20115;-46
2023/06/07 00:21:52;;;;;;;8.40;5.25;;;;;;;13.07;74.85;101649.03;4950375;28;20425;-45
2023/06/07 00:24:20;;;;;;;8.00;5.32;;;;;;;13.06;74.95;101641.00;4948704;29;20039;-46
2023/06/07 00:26:47;;;;;;;11.27;6.50;;;;;;;13.07;75.00;101648.22;4949779;28;20039;-45
2023/06/07 00:29:15;;;;;;;7.80;5.75;;;;;;;13.06;75.02;101646.56;4942170;28;20079;-45
2023/06/07 00:31:42;;;;;;;9.77;5.57;;;;;;;13.03;75.00;101647.22;4935571;28;20051;-45
2023/06/07 00:34:12;;;;;;;7.75;5.25;;;;;;;13.01;74.92;101647.59;4949421;29;20051;-53
2023/06/07 00:36:39;;;;;;;7.50;5.10;;;;;;;13.00;74.90;101647.94;4932926;29;20047;-45
2023/06/07 00:39:06;;;;;;;7.57;5.07;;;;;;;12.99;75.16;101640.75;4950723;28;20145;-52
2023/06/07 00:41:32;;;;;;;8.45;6.07;;;;;;;12.95;75.19;101634.22;4950546;29;20054;-45
2023/06/07 00:44:02;;;;;;;9.80;5.65;;;;;;;12.93;75.21;101631.78;4950944;29;20035;-46
2023/06/07 00:46:29;;;;;;;13.85;6.10;;;;;;;12.91;75.26;101645.22;4930988;29;20494;-46
2023/06/07 00:48:57;;;;;;;7.40;4.88;;;;;;;12.88;75.38;101639.50;4942404;28;20054;-45
2023/06/07 00:51:28;;;;;;;8.57;4.70;;;;;;;12.83;75.45;101638.59;4951107;29;20070;-45
2023/06/07 00:53:59;;;;;;;8.05;5.45;;;;;;;12.83;75.45;101633.03;4932388;29;20047;-47
2023/06/07 00:56:27;;;;;;;7.70;5.18;;;;;;;12.80;75.41;101633.69;4950007;28;20046;-45
2023/06/07 00:58:54;;;;;;;11.07;6.70;;;;;;;12.73;75.54;101630.63;4949609;28;20059;-47
2023/06/07 01:01:22;;;;;;;11.48;6.28;;;;;;;12.70;75.55;101628.56;4950451;29;20106;-45
2023/06/07 01:03:49;;;;;;;10.63;5.93;;;;;;;12.69;75.76;101634.44;4951713;29;20051;-46
2023/06/07 01:06:15;;;;;;;10.07;5.40;;;;;;;12.64;75.95;101646.56;4950600;29;20150;-45
2023/06/07 01:08:43;;;;;;;14.18;7.00;;;;;;;12.65;75.83;101625.16;4950761;28;20047;-46
2023/06/07 01:11:12;;;;;;;11.23;6.25;;;;;;;12.66;75.89;101632.31;4949829;29;20050;-50
2023/06/07 01:13:39;;;;;;;10.48;6.65;;;;;;;12.67;75.90;101634.78;4948944;29;20062;-45
2023/06/07 01:16:08;;;;;;;12.60;7.35;;;;;;;12.66;75.99;101632.31;4950311;29;20461;-45
2023/06/07 01:18:35;;;;;;;12.15;7.25;;;;;;;12.62;76.21;101632.19;4950344;28;20051;-47
2023/06/07 01:21:05;;;;;;;11.63;7.47;;;;;;;12.60;76.29;101634.47;4934966;29;20398;-46
2023/06/07 01:23:33;;;;;;;12.18;6.85;;;;;;;12.60;76.39;101628.13;4949405;29;20540;-46
2023/06/07 01:26:01;;;;;;;14.43;7.88;;;;;;;12.60;76.59;101628.13;4954564;29;20051;-45
2023/06/07 01:28:33;;;;;;;12.93;7.82;;;;;;;12.60;76.49;101620.59;4953505;29;20057;-46
2023/06/07 01:31:01;;;;;;;;;;;;;;;12.58;76.78;101620.13;4954786;29;20382;-45
2023/06/07 01:33:29;;;;;;;15.65;8.70;;;;;;;12.57;76.22;101629.63;4953652;29;20037;-46
2023/06/07 01:35:57;;;;;;;15.20;8.40;;;;;;;12.55;76.39;101631.91;4949578;29;20051;-45
2023/06/07 01:38:26;;;;;;;15.90;10.73;;;;;;;12.58;76.71;101636.78;4954308;29;20043;-46
2023/06/07 01:40:55;;;;;;;18.88;10.25;;;;;;;12.61;76.88;101635.31;4953646;28;20051;-46
2023/06/07 01:43:23;;;;;;;15.30;9.23;;;;;;;12.60;77.03;101628.91;4953769;29;20090;-45
2023/06/07 01:45:51;;;;;;;19.58;10.27;;;;;;;12.58;77.05;101631.22;4951446;29;20047;-45
2023/06/07 01:48:19;;;;;;;17.73;10.25;;;;;;;12.59;77.43;101632.06;4936601;29;20050;-45
2023/06/07 01:50:48;;;;;;;22.65;11.07;;;;;;;12.61;77.50;101624.19;4936560;29;20103;-51
2023/06/07 01:53:15;;;;;;;26.42;11.35;;;;;;;12.62;77.48;101628.59;4954049;29;20050;-45
2023/06/07 01:55:42;;;;;;;24.77;12.05;;;;;;;12.66;77.78;101626.75;4953511;28;20497;-45
2023/06/07 01:58:32;;;;;;;19.95;10.13;;;;;;;12.65;78.06;101625.97;4953756;29;20074;-47
2023/06/07 02:01:16;;;;;;;20.35;10.85;;;;;;;12.61;78.21;101625.00;4953545;29;20055;-45
2023/06/07 02:03:48;;;;;;;20.88;12.05;;;;;;;12.63;78.09;101633.81;4952663;29;20516;-45
2023/06/07 02:06:20;;;;;;;22.83;12.25;;;;;;;12.69;78.72;101638.03;4941808;28;20058;-45
2023/06/07 02:08:52;;;;;;;20.27;12.02;;;;;;;12.78;78.83;101627.66;4953799;29;20412;-49
2023/06/07 02:11:21;;;;;;;;;;;;;;;12.84;78.80;101629.06;4954076;29;20105;-46
2023/06/07 02:13:52;;;;;;;22.30;10.73;;;;;;;12.93;78.61;101636.53;4953554;29;19930;-45
2023/06/07 02:16:32;;;;;;;22.33;12.73;;;;;;;13.00;78.89;101631.25;4952957;29;20126;-45
2023/06/07 02:18:59;;;;;;;25.88;13.93;;;;;;;13.08;78.92;101625.63;4952507;29;20043;-45
2023/06/07 02:21:26;;;;;;;25.73;12.43;;;;;;;13.12;79.43;101625.78;4953482;28;20039;-46
2023/06/07 02:23:53;;;;;;;24.42;14.43;;;;;;;13.14;79.54;101620.69;4947995;28;20043;-45
2023/06/07 02:26:20;;;;;;;23.63;13.98;;;;;;;13.18;79.91;101627.19;4953220;29;20051;-45
2023/06/07 02:28:47;;;;;;;27.83;16.63;;;;;;;13.18;80.04;101621.63;4953026;28;20043;-50
2023/06/07 02:31:14;;;;;;;23.50;13.73;;;;;;;13.16;80.25;101613.63;4953465;29;20462;-45
2023/06/07 02:33:41;;;;;;;28.90;16.30;;;;;;;13.20;80.35;101616.53;4952676;28;20102;-46
2023/06/07 02:36:08;;;;;;;28.40;13.98;;;;;;;13.22;80.77;101622.56;4947493;28;20051;-45
2023/06/07 02:38:34;;;;;;;29.95;14.35;;;;;;;13.27;80.95;101614.00;4951953;29;20043;-45
2023/06/07 02:41:01;;;;;;;27.58;13.68;;;;;;;13.30;80.91;101613.34;4952755;29;20051;-46
2023/06/07 02:43:28;;;;;;;25.35;13.98;;;;;;;13.31;81.23;101626.09;4953123;29;20094;-45
2023/06/07 02:45:55;;;;;;;28.00;13.75;;;;;;;13.34;81.28;101619.84;4951606;29;20047;-47
2023/06/07 02:48:22;;;;;;;26.77;13.63;;;;;;;13.35;81.47;101615.91;4935599;29;20042;-45
2023/06/07 02:50:48;;;;;;;22.50;12.77;;;;;;;13.36;81.92;101615.56;4951301;29;20062;-45
2023/06/07 02:53:15;;;;;;;26.45;13.38;;;;;;;13.39;81.93;101612.09;4952104;29;20501;-49
2023/06/07 02:55:42;;;;;;;24.13;14.07;;;;;;;13.41;81.95;101614.53;4935477;29;20446;-47
2023/06/07 02:58:09;;;;;;;27.33;13.70;;;;;;;13.43;82.03;101610.25;4940087;29;20050;-47
2023/06/07 03:00:36;;;;;;;22.65;12.32;;;;;;;13.45;82.02;101621.03;4980479;23;20026;-48
2023/06/07 03:03:05;;;;;;;26.73;15.68;;;;;;;13.43;82.04;101606.66;4941295;29;20083;-44
2023/06/07 03:05:33;;;;;;;23.83;13.02;;;;;;;13.37;81.98;101608.00;4932351;29;20755;-52
2023/06/07 03:08:00;;;;;;;31.65;16.60;;;;;;;13.36;82.24;101606.41;4932951;29;20055;-45
2023/06/07 03:10:27;;;;;;;22.80;13.90;;;;;;;13.35;82.35;101611.16;4925742;29;20040;-45
2023/06/07 03:12:54;;;;;;;25.90;14.73;;;;;;;13.34;82.53;101611.50;4925122;29;20462;-44
2023/06/07 03:15:21;;;;;;;23.95;14.95;;;;;;;13.34;82.48;101608.72;4929080;29;20942;-47
2023/06/07 03:17:48;;;;;;;27.38;15.35;;;;;;;13.33;82.38;101621.00;4930666;29;20056;-47
2023/06/07 03:20:15;;;;;;;25.02;14.75;;;;;;;13.27;82.44;101625.13;4928809;29;20505;-48
2023/06/07 03:22:44;;;;;;;26.42;16.70;;;;;;;13.23;82.72;101613.09;4929609;29;20044;-45
2023/06/07 03:25:11;;;;;;;26.20;14.85;;;;;;;13.23;82.63;101616.69;4914526;29;20050;-45
2023/06/07 03:27:38;;;;;;;28.08;16.08;;;;;;;13.24;82.89;101607.16;4927736;29;20653;-46
2023/06/07 03:30:06;;;;;;;23.60;14.23;;;;;;;13.24;82.64;101614.69;4930721;29;20062;-48
2023/06/07 03:32:33;;;;;;;22.95;13.93;;;;;;;13.21;82.85;101620.97;4929980;29;20079;-46
2023/06/07 03:35:00;;;;;;;28.70;14.07;;;;;;;13.13;82.90;101613.50;4932671;29;20056;-45
2023/06/07 03:37:27;;;;;;;22.73;12.77;;;;;;;13.08;83.10;101620.06;4931899;29;20099;-45
2023/06/07 03:39:55;;;;;;;20.15;12.90;;;;;;;13.04;82.87;101621.91;4929730;29;20427;-49
2023/06/07 03:42:22;;;;;;;26.38;14.93;;;;;;;13.03;83.06;101613.88;4924971;29;20067;-49
2023/06/07 03:44:49;;;;;;;24.75;15.10;;;;;;;13.02;83.02;101617.81;4927242;29;20039;-48
2023/06/07 03:47:16;;;;;;;28.88;16.65;;;;;;;12.99;82.98;101619.31;4930104;29;20046;-53
2023/06/07 03:49:44;;;;;;;23.20;13.75;;;;;;;12.97;83.28;101620.81;4931846;29;20048;-44
2023/06/07 03:52:10;;;;;;;22.33;12.50;;;;;;;12.99;83.26;101618.50;4930788;29;20043;-44
2023/06/07 03:54:37;;;;;;;23.15;12.65;;;;;;;13.02;83.37;101623.38;4930049;29;20067;-47
2023/06/07 03:57:05;;;;;;;22.60;12.45;;;;;;;13.06;83.49;101624.31;4914940;29;20052;-47
2023/06/07 03:59:32;;;;;;;23.58;13.02;;;;;;;13.08;83.34;101613.72;4927916;29;20051;-47
2023/06/07 04:02:00;;;;;;;24.88;13.77;;;;;;;13.07;83.26;101620.44;4937719;28;20047;-46
2023/06/07 04:04:27;;;;;;;19.20;12.15;;;;;;;13.07;83.43;101617.66;4949466;28;20047;-52
2023/06/07 04:06:54;;;;;;;21.60;14.18;;;;;;;13.08;83.47;101619.28;4926137;29;20086;-45
2023/06/07 04:09:21;;;;;;;22.90;13.15;;;;;;;13.10;83.61;101625.31;4950489;29;20047;-45
2023/06/07 04:11:48;;;;;;;24.02;12.73;;;;;;;13.12;83.42;101617.44;4940614;29;20051;-47
2023/06/07 04:14:15;;;;;;;19.50;12.20;;;;;;;13.16;83.61;101610.03;4950168;29;20074;-45
2023/06/07 04:16:42;;;;;;;20.75;12.02;;;;;;;13.16;83.70;101612.81;4950479;29;20051;-45
2023/06/07 04:19:10;;;;;;;18.90;11.52;;;;;;;13.12;83.52;101614.66;4950199;29;20054;-47
2023/06/07 04:21:39;;;;;;;23.48;10.32;;;;;;;13.06;83.79;101618.75;4951447;29;20097;-46
2023/06/07 04:24:06;;;;;;;17.83;9.30;;;;;;;12.99;83.38;101612.94;4950852;29;20046;-45
2023/06/07 04:26:33;;;;;;;16.15;8.63;;;;;;;12.89;83.68;101605.84;4950874;29;20051;-48
2023/06/07 04:29:00;;;;;;;15.15;8.85;;;;;;;12.80;83.75;101611.47;4951456;29;20043;-48
2023/06/07 04:31:29;;;;;;;15.57;9.52;;;;;;;12.72;83.57;101601.22;4951124;29;20039;-45
2023/06/07 04:33:59;;;;;;;15.75;8.93;;;;;;;12.68;83.78;101603.03;4951056;29;20086;-45
2023/06/07 04:36:28;;;;;;;17.73;9.38;;;;;;;12.63;83.73;101602.44;4948081;28;20058;-46
2023/06/07 04:39:03;;;;;;;18.00;8.70;;;;;;;12.60;83.85;101612.25;4950387;28;20062;-46
2023/06/07 04:41:33;;;;;;;15.27;8.65;;;;;;;12.60;83.63;101614.25;4949986;28;20051;-45
2023/06/07 04:44:09;;;;;;;14.32;8.77;;;;;;;12.61;83.69;101619.44;4949341;28;20086;-46
2023/06/07 04:46:39;;;;;;;13.52;8.05;;;;;;;12.60;83.41;101614.25;4950078;28;20520;-45
2023/06/07 04:49:07;;;;;;;13.50;8.18;;;;;;;12.58;83.52;101619.31;4946772;28;20110;-50
2023/06/07 04:51:35;;;;;;;12.35;8.45;;;;;;;12.57;83.47;101610.19;4946991;28;20054;-45
2023/06/07 04:54:04;;;;;;;14.60;8.75;;;;;;;12.57;83.54;101618.50;4948991;28;20047;-46
2023/06/07 04:56:31;;;;;;;17.17;8.45;;;;;;;12.57;83.50;101623.25;4947469;28;20051;-45
2023/06/07 04:58:58;;;;;;;17.13;9.05;;;;;;;12.59;83.44;101621.75;4950707;29;20516;-45
2023/06/07 05:01:27;;;;;;;19.75;9.43;;;;;;;12.63;83.19;101628.25;4943126;28;20055;-47
2023/06/07 05:04:02;;;;;;;14.52;9.88;;;;;;;12.63;83.32;101628.25;4933619;29;20047;-45
2023/06/07 05:06:31;;;;;;;16.02;9.07;;;;;;;12.64;83.13;101626.28;4941755;28;20122;-45
2023/06/07 05:08:58;;;;;;;13.85;8.85;;;;;;;12.64;83.27;101623.50;4943895;28;20063;-45
2023/06/07 05:11:25;;;;;;;16.85;9.35;;;;;;;12.63;83.02;101616.31;4946696;28;20072;-46
2023/06/07 05:13:51;;;;;;;12.55;8.50;;;;;;;12.62;82.83;101615.53;4949713;28;20501;-45
2023/06/07 05:16:19;;;;;;;15.05;8.90;;;;;;;12.60;82.55;101617.81;4946918;28;20049;-48
2023/06/07 05:18:48;;;;;;;19.02;9.93;;;;;;;12.62;82.57;101621.09;4950683;29;20043;-51
2023/06/07 05:21:16;;;;;;;15.38;9.70;;;;;;;12.64;82.29;101627.13;4948359;28;20556;-45
2023/06/07 05:23:44;;;;;;;14.98;8.73;;;;;;;12.64;81.89;101634.63;4948457;28;20064;-45
2023/06/07 05:26:11;;;;;;;16.98;10.68;;;;;;;12.63;81.63;101627.44;4948365;28;20042;-48
2023/06/07 05:28:38;;;;;;;18.63;10.68;;;;;;;12.64;81.19;101623.50;4944656;28;20409;-45
2023/06/07 05:31:05;;;;;;;19.23;11.07;;;;;;;12.64;80.79;101624.34;4945626;28;20055;-45
2023/06/07 05:33:34;;;;;;;14.95;10.15;;;;;;;12.65;80.65;101623.19;4949466;28;20062;-45
2023/06/07 05:36:01;;;;;;;20.27;10.07;;;;;;;12.66;80.45;101622.03;4943857;28;20058;-45
2023/06/07 05:38:28;;;;;;;16.50;9.18;;;;;;;12.69;80.16;101635.25;4944987;28;20082;-45
2023/06/07 05:40:55;;;;;;;15.43;9.55;;;;;;;12.71;80.11;101627.38;4949230;28;20379;-50
2023/06/07 05:43:22;;;;;;;16.00;9.90;;;;;;;12.79;79.92;101632.06;4941701;28;20043;-45
2023/06/07 05:45:49;;;;;;;21.48;10.27;;;;;;;12.83;79.29;101616.34;4943177;29;20456;-45
2023/06/07 05:48:16;;;;;;;16.33;9.15;;;;;;;12.82;79.46;101633.34;4950456;29;20047;-48
2023/06/07 05:50:43;;;;;;;15.00;8.10;;;;;;;12.86;79.61;101633.50;4926175;29;20710;-45
2023/06/07 05:53:10;;;;;;;13.57;9.20;;;;;;;12.94;79.49;101639.00;4950111;29;20075;-45
2023/06/07 05:55:37;;;;;;;12.65;8.60;;;;;;;12.98;79.28;101639.91;4949721;28;20047;-45
2023/06/07 05:58:04;;;;;;;19.65;9.07;;;;;;;13.05;79.12;101644.94;4949938;29;20039;-48
2023/06/07 06:00:31;;;;;;;14.65;8.07;;;;;;;13.12;79.15;101639.69;4948619;28;20509;-47
2023/06/07 06:03:01;;;;;;;11.52;8.13;;;;;;;13.26;79.15;101646.56;4945912;29;20079;-47
2023/06/07 06:05:28;;;;;;;15.50;9.32;;;;;;;13.35;78.70;101643.72;4949934;29;20106;-45
2023/06/07 06:07:56;;;;;;;14.32;7.72;;;;;;;13.44;78.38;101636.09;4951601;28;20050;-45
2023/06/07 06:10:25;;;;;;;14.05;8.25;;;;;;;13.47;77.75;101634.59;4953636;29;20498;-50
2023/06/07 06:12:52;;;;;;;10.77;7.80;;;;;;;13.49;77.51;101633.09;4952885;28;20524;-45
2023/06/07 06:15:19;;;;;;;12.40;7.88;;;;;;;13.45;76.69;101639.69;4945402;28;20149;-49
2023/06/07 06:17:47;;;;;;;17.40;9.18;;;;;;;13.39;76.15;101647.44;4949144;28;20299;-49
2023/06/07 06:20:16;;;;;;;14.93;8.25;;;;;;;13.37;76.23;101639.44;4945513;28;20055;-48
2023/06/07 06:22:43;;;;;;;14.02;8.88;;;;;;;13.38;76.14;101646.63;4948039;28;20071;-48
2023/06/07 06:25:12;;;;;;;15.73;7.85;;;;;;;13.41;75.79;101647.91;4952838;28;20473;-45
2023/06/07 06:27:39;;;;;;;12.60;8.13;;;;;;;13.45;75.81;101637.72;4952368;29;20806;-45
2023/06/07 06:30:08;;;;;;;12.45;8.43;;;;;;;13.46;75.44;101638.53;4948219;28;20086;-45
2023/06/07 06:32:35;;;;;;;11.70;7.75;;;;;;;13.46;75.22;101633.78;4944751;28;20453;-46
2023/06/07 06:35:05;;;;;;;16.67;8.57;;;;;;;13.52;75.58;101637.16;4946882;28;20153;-45
2023/06/07 06:37:32;;;;;;;12.93;8.20;;;;;;;13.57;75.20;101639.72;4943156;28;20043;-45
2023/06/07 06:39:58;;;;;;;12.88;8.65;;;;;;;13.57;74.99;101646.13;4938199;29;20501;-46
2023/06/07 06:42:25;;;;;;;12.68;8.90;;;;;;;13.59;74.71;101652.13;4951938;29;20070;-46
2023/06/07 06:44:52;;;;;;;14.45;8.43;;;;;;;13.64;74.56;101649.13;4950307;29;20039;-50
2023/06/07 06:47:19;;;;;;;14.73;8.30;;;;;;;13.69;74.80;101646.13;4952412;29;20035;-45
2023/06/07 06:49:46;;;;;;;14.68;8.95;;;;;;;13.74;74.62;101645.91;4953615;29;20047;-45
2023/06/07 06:52:13;;;;;;;11.90;7.90;;;;;;;13.78;74.51;101649.63;4952455;29;20039;-47
2023/06/07 06:54:40;;;;;;;15.57;7.97;;;;;;;13.82;74.21;101652.56;4952995;29;20047;-47
2023/06/07 06:57:08;;;;;;;13.13;7.55;;;;;;;13.84;74.00;101650.25;4952967;29;20100;-45
2023/06/07 06:59:35;;;;;;;12.55;7.75;;;;;;;13.90;74.18;101657.19;4953594;29;20055;-45
2023/06/07 07:02:03;;;;;;;11.05;7.10;;;;;;;13.94;74.04;101653.38;4951511;29;20417;-45
2023/06/07 07:04:31;;;;;;;16.42;8.75;;;;;;;13.97;73.78;101666.63;4950171;29;20043;-44
2023/06/07 07:06:58;;;;;;;11.95;7.80;;;;;;;13.98;73.53;101665.44;4953260;29;20539;-45
2023/06/07 07:09:25;;;;;;;13.25;7.88;;;;;;;14.06;73.49;101674.06;4939588;29;20051;-46
2023/06/07 07:11:51;;;;;;;11.30;6.97;;;;;;;14.10;73.34;101661.88;4951091;29;20047;-46
2023/06/07 07:14:18;;;;;;;13.85;8.30;;;;;;;14.13;72.93;101668.72;4951230;29;20086;-44
2023/06/07 07:16:46;;;;;;;13.50;7.70;;;;;;;14.10;72.59;101670.22;4952303;29;20512;-45
2023/06/07 07:19:13;;;;;;;15.40;7.72;;;;;;;14.07;72.78;101672.88;4952169;28;20409;-46
2023/06/07 07:21:40;;;;;;;11.40;6.82;;;;;;;14.02;72.55;101666.38;4942427;28;20039;-45
2023/06/07 07:24:07;;;;;;;12.13;7.53;;;;;;;13.95;72.64;101663.34;4960674;28;20046;-44
2023/06/07 07:26:35;;;;;;;11.32;6.80;;;;;;;13.95;72.49;101657.78;4948788;28;20517;-47
2023/06/07 07:29:03;;;;;;;15.38;8.10;;;;;;;13.98;72.16;101662.66;4954303;28;20098;-46
2023/06/07 07:31:30;;;;;;;11.68;7.35;;;;;;;14.01;71.98;101661.16;4948131;28;20133;-45
2023/06/07 07:33:57;;;;;;;12.07;7.28;;;;;;;14.02;71.95;101662.78;4951388;28;20434;-44
2023/06/07 07:36:24;;;;;;;13.82;7.55;;;;;;;14.01;72.02;101673.09;4955607;28;20394;-44
2023/06/07 07:38:51;;;;;;;12.38;6.93;;;;;;;14.06;71.98;101674.06;4950917;28;20050;-47
2023/06/07 07:41:18;;;;;;;9.95;6.47;;;;;;;14.02;71.95;101671.13;4950573;28;20047;-46
2023/06/07 07:43:45;;;;;;;11.05;6.80;;;;;;;14.00;71.71;101671.47;4926828;28;20753;-48
2023/06/07 07:46:13;;;;;;;10.10;5.95;;;;;;;13.99;71.73;101674.59;4921381;28;20062;-49
2023/06/07 07:48:40;;;;;;;8.52;5.30;;;;;;;13.97;71.54;101672.19;4941698;28;20059;-44
2023/06/07 07:51:08;;;;;;;11.20;5.90;;;;;;;14.02;71.35;101671.97;4933017;29;20063;-44
2023/06/07 07:53:35;;;;;;;9.10;5.90;;;;;;;14.04;71.13;101663.25;4950541;28;20055;-45
2023/06/07 07:56:01;;;;;;;11.15;6.32;;;;;;;14.06;70.68;101674.84;4954488;28;20047;-44
2023/06/07 07:58:28;;;;;;;7.85;4.82;;;;;;;14.06;70.49;101665.69;4950536;28;20066;-49
2023/06/07 08:00:56;;;;;;;8.70;4.65;;;;;;;14.06;70.59;101662.91;4947952;28;20046;-46
2023/06/07 08:03:23;;;;;;;6.93;4.95;;;;;;;13.99;70.40;101664.28;4955180;28;20054;-45
2023/06/07 08:05:50;;;;;;;9.23;5.50;;;;;;;13.99;70.37;101661.50;4948710;28;20409;-50
2023/06/07 08:08:17;;;;;;;9.45;6.22;;;;;;;13.99;70.29;101672.66;4951798;29;20035;-45
2023/06/07 08:10:48;;;;;;;8.45;5.97;;;;;;;13.94;70.20;101663.69;4952204;28;20070;-46
2023/06/07 08:13:15;;;;;;;10.23;5.97;;;;;;;13.92;69.98;101664.06;4936375;28;20039;-44
2023/06/07 08:15:41;;;;;;;10.25;6.40;;;;;;;13.88;69.88;101668.69;4937665;29;20462;-46
2023/06/07 08:18:08;;;;;;;10.50;5.88;;;;;;;13.84;69.88;101662.19;4945542;29;20046;-45
2023/06/07 08:20:36;;;;;;;8.70;5.82;;;;;;;13.88;70.00;101663.09;4932885;29;20417;-48
2023/06/07 08:23:03;;;;;;;11.82;6.07;;;;;;;13.95;69.84;101666.13;4945706;29;20394;-51
2023/06/07 08:25:30;;;;;;;9.35;5.85;;;;;;;13.96;69.88;101667.75;4948093;29;20043;-46
2023/06/07 08:27:56;;;;;;;9.40;5.90;;;;;;;13.96;69.80;101666.94;4949192;29;20548;-47
2023/06/07 08:30:23;;;;;;;6.40;5.03;;;;;;;13.93;69.58;101664.84;4946008;28;20549;-45
2023/06/07 08:32:50;;;;;;;6.38;4.22;;;;;;;13.89;69.66;101670.31;4949672;29;20047;-45
2023/06/07 08:35:17;;;;;;;9.07;4.72;;;;;;;13.94;69.95;101678.44;4947654;28;20502;-44
2023/06/07 08:37:44;;;;;;;6.75;3.67;;;;;;;13.98;69.60;101668.22;4948159;29;20090;-44
2023/06/07 08:40:11;;;;;;;6.53;3.78;;;;;;;14.03;69.60;101670.78;4949840;29;20043;-50
2023/06/07 08:42:39;;;;;;;7.30;3.17;;;;;;;14.13;69.62;101688.22;4949699;29;20523;-46
2023/06/07 08:45:06;;;;;;;5.50;2.50;;;;;;;14.19;69.00;101681.25;4944120;28;20054;-47
2023/06/07 08:47:35;;;;;;;5.78;3.20;;;;;;;14.21;68.88;101688.09;4939963;28;20413;-46
2023/06/07 08:50:04;;;;;;;6.32;2.67;;;;;;;14.17;68.48;101691.91;4946359;29;20051;-45
2023/06/07 08:52:38;;;;;;;6.18;2.90;;;;;;;14.08;68.25;101680.09;4945013;29;20059;-48
2023/06/07 08:55:07;;;;;;;4.25;2.50;;;;;;;14.10;68.12;101680.53;4948638;28;20651;-46
2023/06/07 08:57:36;;;;;;;9.55;3.65;;;;;;;14.17;68.17;101675.19;4950534;28;20067;-47
2023/06/07 09:00:06;;;;;;;6.35;2.90;;;;;;;14.22;67.51;101672.19;4942928;29;20043;-44
2023/06/07 09:02:34;;;;;;;7.10;2.92;;;;;;;14.20;67.38;101680.09;4947413;28;20059;-45
2023/06/07 09:05:01;;;;;;;6.25;3.03;;;;;;;14.17;67.30;101675.19;4947448;28;20043;-44
2023/06/07 09:07:28;;;;;;;7.43;4.95;;;;;;;14.20;67.44;101672.53;4941022;29;20059;-47
2023/06/07 09:09:55;;;;;;;7.32;3.22;;;;;;;14.13;67.18;101675.09;4947642;28;20130;-44
2023/06/07 09:12:22;;;;;;;3.50;3.08;;;;;;;14.09;67.16;101667.75;4946621;28;20450;-45
2023/06/07 09:14:49;;;;;;;20.48;3.55;;;;;;;14.13;67.30;101658.41;4946917;29;20149;-47
2023/06/07 09:17:17;;;;;;;7.78;4.13;;;;;;;14.19;67.23;101665.34;4947863;29;20043;-45
2023/06/07 09:19:44;;;;;;;8.40;3.85;;;;;;;14.24;67.18;101675.47;4945233;28;20133;-44
2023/06/07 09:22:17;;;;;;;5.75;3.58;;;;;;;14.26;67.14;101678.69;4951052;28;20057;-45
2023/06/07 09:24:46;;;;;;;6.55;3.53;;;;;;;14.22;67.08;101680.53;4949313;29;20101;-51
2023/06/07 09:27:13;;;;;;;5.47;3.08;;;;;;;14.13;66.73;101671.50;4953886;28;20043;-46
2023/06/07 09:29:42;;;;;;;6.07;3.85;;;;;;;14.11;66.75;101685.75;4948069;29;20043;-44
2023/06/07 09:32:20;;;;;;;5.28;3.05;;;;;;;14.10;66.58;101683.31;4930602;29;20126;-45
2023/06/07 09:34:49;;;;;;;5.68;3.13;;;;;;;14.12;66.69;101683.78;4948804;29;20047;-44
2023/06/07 09:37:20;;;;;;;7.40;3.67;;;;;;;14.19;66.59;101695.19;4948524;29;20494;-44
2023/06/07 09:39:52;;;;;;;4.20;3.10;;;;;;;14.20;66.52;101692.03;4949848;29;20055;-52
2023/06/07 09:42:20;;;;;;;3.22;2.55;;;;;;;14.30;66.41;101685.19;4931688;29;20043;-45
2023/06/07 09:44:48;;;;;;;4.05;3.03;;;;;;;14.35;66.13;101687.81;4954371;29;20039;-49
2023/06/07 09:47:22;;;;;;;6.47;3.13;;;;;;;14.32;66.22;101694.06;4949815;29;20054;-47
2023/06/07 09:49:54;;;;;;;5.03;3.00;;;;;;;14.38;66.17;101687.09;4954028;29;20390;-44
2023/06/07 09:52:22;;;;;;;8.77;3.08;;;;;;;14.40;65.99;101690.34;4950949;28;20051;-44
2023/06/07 09:54:49;;;;;;;5.53;2.72;;;;;;;14.43;65.88;101690.44;4948106;29;20439;-44
2023/06/07 09:57:25;;;;;;;4.90;2.85;;;;;;;14.49;65.65;101693.81;4949027;28;20043;-44
2023/06/07 10:00:13;;;;;;;5.05;2.50;;;;;;;14.51;65.57;101685.91;4950354;28;20067;-51
2023/06/07 10:02:45;;;;;;;3.88;2.13;;;;;;;14.48;65.41;101681.06;4953701;28;20060;-45
2023/06/07 10:05:14;;;;;;;4.53;3.03;;;;;;;14.42;65.53;101690.81;4950500;28;20505;-45
2023/06/07 10:07:48;;;;;;;7.05;2.95;;;;;;;14.36;65.54;101693.00;4951703;29;20077;-45
2023/06/07 10:10:18;;;;;;;5.40;2.45;;;;;;;14.41;65.67;101697.53;4941842;29;20035;-50
2023/06/07 10:12:48;;;;;;;4.53;2.80;;;;;;;14.44;65.45;101699.63;4949596;28;20587;-46
2023/06/07 10:15:21;;;;;;;3.08;1.98;;;;;;;14.49;65.15;101707.75;4948331;28;20127;-44
2023/06/07 10:17:54;;;;;;;3.63;2.40;;;;;;;14.53;65.33;101705.91;4946124;28;20047;-45
2023/06/07 10:20:28;;;;;;;4.80;2.30;;;;;;;14.52;65.06;101702.31;4951041;29;20640;-47
2023/06/07 10:23:18;;;;;;;3.95;2.33;;;;;;;14.55;65.20;101709.16;4950746;29;20046;-44
2023/06/07 10:26:02;;;;;;;5.57;1.90;;;;;;;14.62;65.16;101709.38;4942153;28;20027;-44
2023/06/07 10:28:48;;;;;;;5.32;2.20;;;;;;;14.67;64.98;101709.13;4948588;29;20055;-48
2023/06/07 10:31:16;;;;;;;6.63;2.97;;;;;;;14.64;64.63;101707.88;4943496;29;20097;-52
2023/06/07 10:33:44;;;;;;;3.17;2.38;;;;;;;14.56;64.33;101713.56;4950883;29;20069;-44
2023/06/07 10:36:12;;;;;;;6.57;3.67;;;;;;;14.52;64.04;101712.63;4952957;29;20046;-45
2023/06/07 10:38:41;;;;;;;5.63;2.05;;;;;;;14.56;64.22;101706.00;4950246;28;20051;-47
2023/06/07 10:41:08;;;;;;;6.18;2.72;;;;;;;14.59;64.25;101699.75;4948252;29;20047;-44
2023/06/07 10:43:38;;;;;;;2.28;1.88;;;;;;;14.68;64.04;101699.63;4945771;29;20035;-45
2023/06/07 10:46:21;;;;;;;3.20;2.47;;;;;;;14.88;64.19;101687.50;4948153;29;20564;-45
2023/06/07 10:48:53;;;;;;;2.38;2.15;;;;;;;15.19;63.80;101684.06;4941954;29;20043;-45
2023/06/07 10:51:58;;;;;;;2.92;2.38;;;;;;;15.52;63.19;101676.28;4943630;29;20632;-46
2023/06/07 10:54:31;;;;;;;3.78;2.35;;;;;;;15.68;63.22;101681.91;4920359;29;20043;-51
2023/06/07 10:56:59;;;;;;;3.10;2.20;;;;;;;15.77;62.67;101688.16;4948891;29;20051;-45
2023/06/07 10:59:26;;;;;;;3.85;2.30;;;;;;;15.91;62.45;101676.56;4950541;29;20325;-45
2023/06/07 11:02:14;;;;;;;6.85;2.10;;;;;;;16.03;62.31;101674.50;4937772;28;20153;-45
2023/06/07 11:04:51;;;;;;;5.22;2.50;;;;;;;16.28;61.88;101675.13;4950919;29;20528;-47
2023/06/07 11:07:24;;;;;;;3.03;1.90;;;;;;;16.43;61.65;101677.91;4952017;29;20058;-45
2023/06/07 11:10:16;;;;;;;2.40;1.73;;;;;;;16.66;61.47;101680.88;4948957;29;20138;-44
2023/06/07 11:12:44;;;;;;;5.60;2.75;;;;;;;16.73;60.76;101677.44;4904907;29;20055;-45
2023/06/07 11:15:17;;;;;;;2.63;2.35;;;;;;;16.80;60.69;101669.22;4949897;29;20479;-45
2023/06/07 11:17:58;;;;;;;4.97;2.20;;;;;;;16.92;60.38;101666.28;4947542;28;20039;-44
2023/06/07 11:20:37;;;;;;;4.50;2.00;;;;;;;16.85;60.15;101672.53;4931543;29;20062;-46
2023/06/07 11:23:31;;;;;;;3.38;2.20;;;;;;;16.93;60.12;101667.91;4939319;28;20063;-47
2023/06/07 11:26:05;;;;;;;2.13;1.90;;;;;;;16.95;59.48;101669.16;4946438;29;20077;-45
2023/06/07 11:28:37;;;;;;;3.80;1.90;;;;;;;17.00;59.44;101665.25;4943053;29;20450;-45